createdAt,value
2023-04-18T00:00:53.417Z,5.18
2023-04-18T00:01:55.769Z,5.90
2023-04-18T00:02:59.256Z,5.65
2023-04-18T00:04:03.201Z,5.10
2023-04-18T00:05:07.626Z,4.50
2023-04-18T00:06:10.387Z,3.90
2023-04-18T00:07:15.269Z,5.30
2023-04-18T00:08:17.254Z,3.60
2023-04-18T00:09:19.157Z,5.30
2023-04-18T00:10:21.279Z,4.05
2023-04-18T00:11:23.185Z,3.78
2023-04-18T00:12:25.356Z,7.00
2023-04-18T00:13:28.541Z,4.40
2023-04-18T00:14:30.613Z,4.45
2023-04-18T00:15:34.518Z,5.25
2023-04-18T00:16:38.139Z,4.30
2023-04-18T00:17:41.005Z,4.80
2023-04-18T00:18:42.947Z,4.18
2023-04-18T00:19:44.801Z,4.35
2023-04-18T00:20:46.980Z,5.32
2023-04-18T00:21:49.517Z,4.82
2023-04-18T00:22:53.292Z,4.20
2023-04-18T00:23:55.217Z,5.45
2023-04-18T00:24:57.066Z,4.65
2023-04-18T00:25:59.017Z,5.28
2023-04-18T00:27:01.909Z,5.95
2023-04-18T00:28:04.128Z,4.57
2023-04-18T00:29:06.031Z,4.10
2023-04-18T00:30:10.849Z,6.57
2023-04-18T00:31:12.773Z,6.10
2023-04-18T00:32:14.887Z,4.65
2023-04-18T00:33:17.231Z,4.60
2023-04-18T00:34:19.311Z,5.15
2023-04-18T00:35:21.320Z,5.65
2023-04-18T00:36:23.224Z,4.57
2023-04-18T00:37:25.217Z,4.22
2023-04-18T00:38:27.428Z,5.70
2023-04-18T00:39:29.340Z,6.32
2023-04-18T00:40:31.317Z,5.93
2023-04-18T00:41:33.263Z,5.37
2023-04-18T00:42:35.156Z,5.43
2023-04-18T00:43:37.475Z,6.22
2023-04-18T00:44:39.379Z,4.57
2023-04-18T00:45:41.344Z,4.47
2023-04-18T00:46:43.499Z,4.72
2023-04-18T00:47:45.396Z,5.43
2023-04-18T00:48:48.096Z,5.20
2023-04-18T00:49:50.058Z,6.22
2023-04-18T00:50:53.853Z,5.40
2023-04-18T00:51:57.087Z,4.75
2023-04-18T00:52:59.537Z,4.72
2023-04-18T00:54:04.006Z,5.87
2023-04-18T00:55:08.219Z,4.95
2023-04-18T00:56:10.167Z,6.03
2023-04-18T00:57:14.288Z,6.22
2023-04-18T00:58:16.449Z,5.07
2023-04-18T00:59:18.735Z,6.57
2023-04-18T01:00:20.924Z,7.75
2023-04-18T01:01:23.421Z,5.30
2023-04-18T01:02:27.315Z,5.25
2023-04-18T01:03:29.494Z,5.47
2023-04-18T01:04:34.996Z,5.62
2023-04-18T01:05:37.027Z,5.45
2023-04-18T01:06:39.485Z,7.20
2023-04-18T01:07:41.820Z,4.60
2023-04-18T01:08:45.002Z,6.35
2023-04-18T01:09:47.582Z,4.25
2023-04-18T01:10:49.899Z,5.68
2023-04-18T01:11:51.831Z,5.72
2023-04-18T01:13:13.171Z,8.32
2023-04-18T01:14:15.241Z,5.40
2023-04-18T01:15:17.556Z,6.78
2023-04-18T01:16:19.511Z,5.55
2023-04-18T01:17:24.422Z,8.32
2023-04-18T01:18:27.330Z,5.50
2023-04-18T01:19:29.185Z,6.43
2023-04-18T01:20:31.486Z,5.95
2023-04-18T01:21:36.126Z,6.82
2023-04-18T01:22:37.934Z,7.45
2023-04-18T01:23:43.651Z,5.68
2023-04-18T01:24:49.876Z,7.20
2023-04-18T01:25:52.208Z,5.75
2023-04-18T01:26:54.040Z,5.90
2023-04-18T01:27:58.788Z,5.82
2023-04-18T01:29:02.122Z,5.97
2023-04-18T01:30:05.441Z,8.80
2023-04-18T01:31:07.785Z,7.28
2023-04-18T01:32:11.510Z,7.22
2023-04-18T01:33:13.394Z,7.18
2023-04-18T01:34:15.564Z,6.78
2023-04-18T01:35:18.149Z,7.28
2023-04-18T01:36:20.365Z,6.15
2023-04-18T01:37:22.381Z,6.10
2023-04-18T01:38:24.274Z,7.28
2023-04-18T01:39:26.308Z,5.68
2023-04-18T01:40:28.275Z,5.47
2023-04-18T01:41:32.747Z,5.93
2023-04-18T01:42:35.089Z,6.03
2023-04-18T01:43:37.463Z,6.68
2023-04-18T01:44:39.413Z,4.70
2023-04-18T01:45:41.352Z,6.32
2023-04-18T01:46:44.379Z,6.20
2023-04-18T01:47:47.272Z,5.82
2023-04-18T01:48:49.235Z,5.68
2023-04-18T01:49:51.201Z,5.80
2023-04-18T01:50:53.142Z,6.47
2023-04-18T01:51:55.375Z,6.55
2023-04-18T01:52:57.242Z,8.73
2023-04-18T01:53:59.089Z,5.65
2023-04-18T01:55:02.193Z,5.32
2023-04-18T01:56:04.133Z,7.80
2023-04-18T01:57:06.409Z,5.43
2023-04-18T01:58:08.310Z,5.97
2023-04-18T01:59:11.011Z,5.75
2023-04-18T02:00:13.970Z,5.97
2023-04-18T02:01:16.345Z,6.30
2023-04-18T02:02:18.720Z,6.37
2023-04-18T02:03:21.136Z,6.62
2023-04-18T02:04:23.074Z,6.30
2023-04-18T02:05:27.090Z,7.25
2023-04-18T02:06:28.962Z,6.05
2023-04-18T02:07:31.197Z,8.80
2023-04-18T02:08:35.811Z,6.97
2023-04-18T02:09:39.618Z,7.68
2023-04-18T02:10:41.716Z,6.37
2023-04-18T02:11:44.229Z,6.12
2023-04-18T02:12:46.396Z,7.85
2023-04-18T02:13:48.683Z,5.35
2023-04-18T02:14:53.452Z,6.53
2023-04-18T02:15:55.395Z,8.30
2023-04-18T02:16:58.174Z,9.13
2023-04-18T02:18:00.470Z,6.25
2023-04-18T02:19:04.370Z,7.25
2023-04-18T02:20:08.175Z,5.57
2023-04-18T02:21:11.265Z,5.35
2023-04-18T02:22:13.147Z,5.95
2023-04-18T02:23:14.977Z,8.07
2023-04-18T02:24:17.129Z,6.30
2023-04-18T02:25:19.425Z,7.20
2023-04-18T02:26:23.038Z,7.03
2023-04-18T02:27:24.978Z,7.70
2023-04-18T02:28:31.195Z,7.15
2023-04-18T02:29:33.075Z,6.95
2023-04-18T02:30:35.293Z,7.82
2023-04-18T02:31:39.855Z,8.50
2023-04-18T02:32:41.771Z,8.40
2023-04-18T02:33:46.694Z,7.03
2023-04-18T02:34:48.571Z,7.45
2023-04-18T02:35:51.397Z,7.53
2023-04-18T02:36:53.550Z,7.10
2023-04-18T02:37:55.365Z,6.65
2023-04-18T02:38:57.221Z,7.05
2023-04-18T02:39:59.111Z,9.35
2023-04-18T02:41:04.792Z,8.45
2023-04-18T02:42:06.666Z,7.30
2023-04-18T02:43:08.515Z,7.82
2023-04-18T02:44:10.481Z,7.72
2023-04-18T02:45:12.695Z,7.18
2023-04-18T02:46:14.992Z,7.93
2023-04-18T02:47:17.805Z,7.82
2023-04-18T02:48:20.530Z,8.07
2023-04-18T02:49:22.801Z,6.28
2023-04-18T02:50:25.413Z,6.65
2023-04-18T02:51:28.166Z,8.70
2023-04-18T02:52:31.835Z,10.00
2023-04-18T02:53:34.646Z,8.55
2023-04-18T02:54:36.677Z,8.70
2023-04-18T02:55:38.966Z,8.82
2023-04-18T02:56:42.877Z,9.05
2023-04-18T02:57:45.906Z,9.35
2023-04-18T02:58:51.116Z,6.90
2023-04-18T02:59:55.533Z,8.32
2023-04-18T03:00:58.409Z,8.93
2023-04-18T03:02:02.061Z,11.43
2023-04-18T03:03:04.328Z,7.47
2023-04-18T03:04:07.381Z,7.12
2023-04-18T03:05:09.694Z,6.43
2023-04-18T03:06:12.046Z,6.95
2023-04-18T03:07:14.352Z,7.20
2023-04-18T03:08:16.445Z,8.30
2023-04-18T03:09:18.693Z,9.15
2023-04-18T03:10:21.699Z,7.10
2023-04-18T03:11:24.648Z,7.57
2023-04-18T03:12:27.753Z,8.98
2023-04-18T03:13:29.711Z,8.82
2023-04-18T03:14:31.592Z,8.73
2023-04-18T03:15:34.397Z,7.43
2023-04-18T03:16:36.484Z,7.05
2023-04-18T03:17:39.485Z,9.27
2023-04-18T03:18:41.747Z,8.85
2023-04-18T03:19:44.946Z,9.50
2023-04-18T03:20:47.658Z,9.52
2023-04-18T03:21:51.289Z,10.70
2023-04-18T03:22:53.422Z,6.82
2023-04-18T03:23:55.645Z,7.93
2023-04-18T03:24:57.714Z,11.40
2023-04-18T03:26:00.926Z,6.72
2023-04-18T03:27:03.844Z,9.63
2023-04-18T03:28:06.169Z,7.95
2023-04-18T03:29:08.501Z,9.05
2023-04-18T03:30:11.172Z,7.53
2023-04-18T03:31:13.558Z,7.55
2023-04-18T03:32:17.350Z,7.87
2023-04-18T03:33:20.104Z,11.05
2023-04-18T03:34:22.381Z,8.80
2023-04-18T03:35:24.767Z,9.82
2023-04-18T03:36:28.687Z,8.00
2023-04-18T03:37:30.910Z,7.78
2023-04-18T03:38:35.058Z,8.60
2023-04-18T03:39:37.923Z,9.93
2023-04-18T03:40:40.063Z,7.45
2023-04-18T03:41:42.591Z,8.50
2023-04-18T03:42:45.321Z,9.50
2023-04-18T03:43:47.510Z,9.55
2023-04-18T03:44:49.361Z,8.13
2023-04-18T03:45:51.447Z,7.12
2023-04-18T03:46:54.170Z,8.73
2023-04-18T03:47:56.454Z,9.98
2023-04-18T03:48:58.871Z,13.15
2023-04-18T03:50:01.281Z,8.73
2023-04-18T03:51:05.597Z,8.73
2023-04-18T03:52:07.560Z,8.55
2023-04-18T03:53:09.555Z,10.60
2023-04-18T03:54:12.180Z,12.07
2023-04-18T03:55:14.345Z,8.18
2023-04-18T03:56:16.225Z,10.95
2023-04-18T03:57:19.909Z,10.13
2023-04-18T03:58:23.755Z,11.38
2023-04-18T03:59:26.477Z,11.45
2023-04-18T04:00:29.439Z,7.78
2023-04-18T04:01:32.103Z,7.80
2023-04-18T04:02:34.143Z,9.88
2023-04-18T04:03:36.304Z,7.97
2023-04-18T04:04:39.605Z,7.95
2023-04-18T04:05:41.739Z,8.77
2023-04-18T04:06:44.065Z,10.30
2023-04-18T04:07:47.133Z,10.35
2023-04-18T04:08:49.189Z,14.13
2023-04-18T04:09:52.611Z,12.57
2023-04-18T04:10:54.568Z,14.52
2023-04-18T04:11:58.057Z,9.02
2023-04-18T04:13:02.079Z,11.30
2023-04-18T04:14:04.826Z,10.48
2023-04-18T04:15:07.577Z,11.40
2023-04-18T04:16:10.035Z,10.40
2023-04-18T04:17:12.671Z,10.95
2023-04-18T04:18:14.741Z,9.65
2023-04-18T04:19:16.844Z,11.10
2023-04-18T04:20:24.168Z,9.32
2023-04-18T04:21:27.180Z,8.77
2023-04-18T04:22:29.433Z,13.30
2023-04-18T04:23:31.427Z,11.55
2023-04-18T04:24:33.745Z,11.10
2023-04-18T04:25:36.576Z,9.25
2023-04-18T04:26:39.045Z,9.30
2023-04-18T04:27:42.797Z,11.25
2023-04-18T04:28:47.424Z,10.20
2023-04-18T04:29:52.304Z,10.90
2023-04-18T04:30:55.507Z,12.43
2023-04-18T04:31:59.146Z,12.57
2023-04-18T04:33:04.226Z,12.23
2023-04-18T04:34:06.283Z,10.60
2023-04-18T04:35:08.666Z,12.02
2023-04-18T04:36:10.806Z,9.32
2023-04-18T04:37:18.687Z,10.00
2023-04-18T04:38:25.021Z,11.57
2023-04-18T04:39:27.974Z,11.57
2023-04-18T04:40:32.238Z,14.02
2023-04-18T04:41:37.563Z,11.63
2023-04-18T04:42:41.103Z,9.63
2023-04-18T04:43:44.269Z,9.32
2023-04-18T04:44:47.277Z,11.35
2023-04-18T04:45:53.943Z,11.80
2023-04-18T04:46:57.263Z,13.40
2023-04-18T04:48:00.049Z,10.88
2023-04-18T04:49:02.413Z,15.23
2023-04-18T04:50:06.239Z,11.07
2023-04-18T04:51:08.132Z,12.95
2023-04-18T04:52:10.568Z,11.18
2023-04-18T04:53:12.468Z,12.95
2023-04-18T04:54:14.992Z,11.18
2023-04-18T04:55:18.974Z,11.95
2023-04-18T04:56:22.792Z,12.07
2023-04-18T04:57:24.864Z,11.77
2023-04-18T04:58:27.590Z,12.40
2023-04-18T04:59:30.505Z,16.65
2023-04-18T05:00:32.647Z,13.90
2023-04-18T05:01:35.529Z,12.98
2023-04-18T05:02:37.742Z,12.93
2023-04-18T05:03:40.039Z,12.68
2023-04-18T05:04:42.585Z,13.88
2023-04-18T05:05:44.762Z,12.20
2023-04-18T05:06:46.668Z,12.82
2023-04-18T05:07:48.528Z,18.27
2023-04-18T05:08:51.141Z,20.52
2023-04-18T05:09:53.636Z,18.20
2023-04-18T05:10:55.770Z,17.00
2023-04-18T05:11:57.641Z,15.57
2023-04-18T05:12:59.506Z,16.77
2023-04-18T05:14:01.341Z,14.82
2023-04-18T05:15:03.664Z,14.82
2023-04-18T05:16:06.158Z,15.07
2023-04-18T05:17:08.416Z,11.38
2023-04-18T05:18:10.505Z,14.48
2023-04-18T05:19:12.375Z,12.55
2023-04-18T05:20:14.675Z,11.90
2023-04-18T05:21:16.741Z,9.60
2023-04-18T05:22:18.663Z,10.15
2023-04-18T05:23:20.515Z,10.73
2023-04-18T05:24:22.407Z,9.45
2023-04-18T05:25:24.799Z,8.82
2023-04-18T05:26:26.722Z,9.00
2023-04-18T05:27:28.894Z,8.85
2023-04-18T05:28:30.883Z,10.50
2023-04-18T05:29:32.884Z,11.30
2023-04-18T05:30:35.152Z,9.70
2023-04-18T05:31:37.121Z,9.05
2023-04-18T05:32:39.252Z,8.50
2023-04-18T05:33:41.168Z,11.65
2023-04-18T05:34:43.534Z,9.38
2023-04-18T05:35:45.802Z,10.65
2023-04-18T05:36:47.982Z,9.48
2023-04-18T05:37:49.840Z,9.73
2023-04-18T05:38:51.728Z,9.15
2023-04-18T05:39:53.562Z,8.05
2023-04-18T05:40:56.064Z,11.12
2023-04-18T05:41:58.439Z,7.97
2023-04-18T05:43:00.964Z,6.87
2023-04-18T05:44:16.775Z,5.82
2023-04-18T05:45:18.919Z,7.20
2023-04-18T05:46:21.151Z,6.78
2023-04-18T05:47:26.710Z,5.90
2023-04-18T05:48:28.717Z,7.97
2023-04-18T05:49:30.702Z,31.00
2023-04-18T05:50:32.574Z,7.70
2023-04-18T05:51:35.066Z,5.30
2023-04-18T05:52:38.960Z,6.15
2023-04-18T05:53:40.826Z,5.97
2023-04-18T05:54:42.698Z,6.70
2023-04-18T05:55:46.533Z,6.87
2023-04-18T05:56:48.788Z,5.22
2023-04-18T05:57:50.819Z,5.87
2023-04-18T05:58:52.674Z,4.80
2023-04-18T05:59:54.533Z,4.95
2023-04-18T06:00:56.604Z,5.72
2023-04-18T06:01:58.829Z,5.47
2023-04-18T06:03:00.888Z,9.00
2023-04-18T06:04:03.033Z,6.62
2023-04-18T06:05:05.720Z,6.50
2023-04-18T06:06:08.019Z,5.78
2023-04-18T06:07:10.422Z,5.80
2023-04-18T06:08:12.287Z,7.00
2023-04-18T06:09:14.225Z,5.97
2023-04-18T06:10:16.258Z,5.97
2023-04-18T06:11:21.195Z,5.72
2023-04-18T06:12:23.601Z,4.37
2023-04-18T06:13:25.507Z,4.50
2023-04-18T06:14:28.383Z,4.90
2023-04-18T06:15:30.313Z,5.95
2023-04-18T06:16:32.273Z,5.00
2023-04-18T06:17:35.041Z,6.15
2023-04-18T06:18:37.002Z,3.78
2023-04-18T06:19:39.699Z,6.85
2023-04-18T06:20:43.916Z,4.05
2023-04-18T06:21:46.116Z,5.35
2023-04-18T06:22:48.271Z,6.03
2023-04-18T06:23:50.202Z,6.53
2023-04-18T06:24:52.049Z,7.05
2023-04-18T06:25:53.981Z,4.20
2023-04-18T06:27:00.220Z,6.53
2023-04-18T06:28:02.480Z,5.43
2023-04-18T06:29:04.326Z,4.68
2023-04-18T06:30:07.918Z,4.12
2023-04-18T06:31:09.778Z,4.82
2023-04-18T06:32:11.699Z,5.37
2023-04-18T06:33:13.968Z,7.85
2023-04-18T06:34:16.620Z,4.15
2023-04-18T06:35:18.739Z,8.73
2023-04-18T06:36:21.232Z,5.15
2023-04-18T06:37:23.526Z,5.00
2023-04-18T06:38:25.798Z,5.28
2023-04-18T06:39:28.022Z,6.80
2023-04-18T06:40:30.025Z,6.57
2023-04-18T06:41:31.990Z,4.62
2023-04-18T06:42:33.905Z,7.82
2023-04-18T06:43:36.234Z,3.40
2023-04-18T06:44:38.291Z,4.55
2023-04-18T06:45:40.517Z,6.85
2023-04-18T06:46:42.734Z,9.73
2023-04-18T06:47:44.800Z,9.65
2023-04-18T06:48:46.986Z,7.85
2023-04-18T06:49:48.874Z,5.70
2023-04-18T06:50:51.239Z,8.07
2023-04-18T06:51:53.118Z,6.35
2023-04-18T06:52:55.283Z,3.90
2023-04-18T06:53:57.448Z,4.85
2023-04-18T06:54:59.426Z,4.22
2023-04-18T06:56:01.296Z,5.62
2023-04-18T06:57:03.818Z,5.03
2023-04-18T06:58:05.844Z,7.68
2023-04-18T06:59:07.963Z,11.20
2023-04-18T07:00:10.559Z,5.03
2023-04-18T07:01:12.516Z,13.77
2023-04-18T07:02:14.823Z,6.05
2023-04-18T07:03:16.846Z,6.45
2023-04-18T07:04:19.543Z,9.40
2023-04-18T07:05:21.750Z,5.10
2023-04-18T07:06:23.597Z,8.60
2023-04-18T07:07:26.479Z,4.15
2023-04-18T07:08:28.430Z,6.10
2023-04-18T07:09:31.044Z,3.05
2023-04-18T07:10:33.052Z,6.68
2023-04-18T07:11:34.912Z,4.55
2023-04-18T07:12:36.891Z,4.37
2023-04-18T07:13:38.878Z,4.97
2023-04-18T07:14:41.039Z,5.30
2023-04-18T07:15:42.955Z,3.87
2023-04-18T07:16:44.898Z,6.85
2023-04-18T07:17:46.926Z,4.20
2023-04-18T07:18:48.809Z,9.32
2023-04-18T07:19:50.997Z,4.57
2023-04-18T07:20:52.862Z,3.78
2023-04-18T07:21:55.946Z,6.85
2023-04-18T07:22:57.840Z,5.87
2023-04-18T07:23:59.753Z,7.25
2023-04-18T07:25:02.014Z,8.98
2023-04-18T07:26:05.774Z,4.50
2023-04-18T07:27:09.478Z,9.43
2023-04-18T07:28:11.328Z,3.58
2023-04-18T07:29:13.182Z,8.20
2023-04-18T07:30:15.511Z,5.45
2023-04-18T07:31:19.495Z,3.97
2023-04-18T07:32:21.659Z,5.25
2023-04-18T07:33:24.114Z,5.07
2023-04-18T07:34:29.790Z,3.85
2023-04-18T07:35:32.121Z,3.97
2023-04-18T07:36:34.028Z,4.07
2023-04-18T07:37:36.168Z,6.97
2023-04-18T07:38:39.302Z,3.70
2023-04-18T07:39:41.837Z,4.03
2023-04-18T07:40:45.598Z,2.95
2023-04-18T07:41:47.468Z,5.87
2023-04-18T07:42:49.353Z,3.10
2023-04-18T07:43:51.209Z,3.92
2023-04-18T07:45:02.356Z,4.90
2023-04-18T07:46:06.173Z,5.80
2023-04-18T07:47:11.824Z,3.10
2023-04-18T07:48:14.665Z,6.90
2023-04-18T07:49:16.700Z,5.00
2023-04-18T07:50:18.764Z,3.87
2023-04-18T07:51:22.214Z,4.10
2023-04-18T07:52:24.264Z,3.58
2023-04-18T07:53:26.178Z,5.20
2023-04-18T07:54:28.120Z,4.50
2023-04-18T07:55:30.782Z,3.62
2023-04-18T07:56:32.986Z,3.08
2023-04-18T07:57:34.861Z,3.30
2023-04-18T07:58:36.840Z,2.92
2023-04-18T07:59:39.060Z,2.70
2023-04-18T08:00:43.785Z,5.80
2023-04-18T08:01:47.493Z,3.05
2023-04-18T08:02:55.713Z,3.33
2023-04-18T08:04:01.734Z,4.35
2023-04-18T08:05:04.247Z,3.12
2023-04-18T08:06:06.558Z,3.70
2023-04-18T08:07:08.776Z,3.62
2023-04-18T08:08:12.054Z,2.22
2023-04-18T08:09:14.146Z,3.92
2023-04-18T08:10:16.411Z,6.25
2023-04-18T08:11:18.292Z,3.03
2023-04-18T08:12:20.498Z,3.83
2023-04-18T08:13:22.491Z,3.65
2023-04-18T08:14:24.359Z,2.47
2023-04-18T08:15:27.653Z,4.10
2023-04-18T08:16:29.618Z,2.12
2023-04-18T08:17:33.075Z,4.53
2023-04-18T08:18:35.778Z,7.62
2023-04-18T08:19:37.625Z,2.25
2023-04-18T08:20:39.527Z,3.30
2023-04-18T08:21:41.385Z,3.55
2023-04-18T08:22:57.748Z,2.50
2023-04-18T08:24:05.670Z,3.70
2023-04-18T08:25:07.914Z,1.83
2023-04-18T08:26:09.787Z,5.85
2023-04-18T08:27:11.766Z,4.62
2023-04-18T08:28:14.211Z,6.47
2023-04-18T08:29:16.180Z,4.65
2023-04-18T08:30:18.087Z,2.90
2023-04-18T08:31:19.998Z,3.22
2023-04-18T08:32:21.932Z,5.10
2023-04-18T08:33:24.555Z,3.85
2023-04-18T08:34:26.451Z,5.60
2023-04-18T08:35:28.474Z,6.62
2023-04-18T08:36:31.546Z,5.57
2023-04-18T08:37:36.381Z,3.58
2023-04-18T08:38:38.596Z,3.05
2023-04-18T08:39:40.449Z,4.32
2023-04-18T08:40:43.565Z,3.95
2023-04-18T08:41:59.425Z,4.97
2023-04-18T08:43:05.002Z,4.80
2023-04-18T08:44:07.504Z,3.30
2023-04-18T08:45:09.665Z,1.92
2023-04-18T08:46:11.792Z,3.53
2023-04-18T08:47:14.711Z,4.50
2023-04-18T08:48:17.667Z,3.28
2023-04-18T08:49:22.551Z,3.35
2023-04-18T08:50:24.414Z,4.10
2023-04-18T08:51:30.779Z,5.05
2023-04-18T08:52:34.231Z,5.70
2023-04-18T08:53:36.172Z,5.28
2023-04-18T08:54:42.029Z,7.12
2023-04-18T08:55:44.533Z,3.40
2023-04-18T08:56:46.687Z,7.47
2023-04-18T08:57:50.384Z,3.10
2023-04-18T08:58:52.289Z,5.62
2023-04-18T08:59:55.304Z,7.28
2023-04-18T09:00:57.186Z,3.00
2023-04-18T09:02:01.505Z,8.20
2023-04-18T09:03:04.050Z,3.78
2023-04-18T09:04:06.274Z,3.65
2023-04-18T09:05:13.248Z,5.22
2023-04-18T09:06:18.933Z,2.75
2023-04-18T09:07:31.177Z,4.05
2023-04-18T09:08:33.001Z,2.60
2023-04-18T09:09:53.234Z,4.87
2023-04-18T09:10:56.187Z,1.27
2023-04-18T09:12:09.099Z,1.60
2023-04-18T09:13:11.171Z,4.70
2023-04-18T09:14:25.941Z,4.70
2023-04-18T09:15:29.278Z,3.50
2023-04-18T09:16:46.713Z,2.62
2023-04-18T09:17:51.095Z,2.75
2023-04-18T09:19:10.503Z,3.05
2023-04-18T09:20:15.629Z,3.83
2023-04-18T09:21:19.455Z,6.97
2023-04-18T09:22:21.972Z,2.33
2023-04-18T09:23:24.602Z,2.95
2023-04-18T09:24:28.493Z,5.45
2023-04-18T09:26:36.577Z,6.87
2023-04-18T09:27:38.788Z,2.83
2023-04-18T09:28:41.311Z,3.97
2023-04-18T09:29:46.983Z,2.80
2023-04-18T09:30:54.369Z,6.82
2023-04-18T09:32:01.228Z,4.32
2023-04-18T09:33:09.611Z,2.03
2023-04-18T09:34:25.021Z,6.62
2023-04-18T09:35:27.651Z,3.03
2023-04-18T09:36:31.337Z,2.15
2023-04-18T09:37:33.323Z,2.40
2023-04-18T09:38:41.917Z,4.43
2023-04-18T09:39:44.781Z,5.28
2023-04-18T09:40:46.640Z,3.60
2023-04-18T09:41:58.900Z,6.80
2023-04-18T09:43:01.309Z,3.92
2023-04-18T09:44:17.135Z,5.47
2023-04-18T09:45:19.469Z,1.17
2023-04-18T09:46:22.592Z,2.70
2023-04-18T09:47:24.560Z,6.00
2023-04-18T09:48:26.472Z,4.25
2023-04-18T09:49:29.063Z,2.90
2023-04-18T09:50:32.746Z,2.78
2023-04-18T09:51:34.989Z,6.15
2023-04-18T09:52:41.118Z,4.60
2023-04-18T09:53:44.996Z,7.87
2023-04-18T09:54:49.103Z,2.62
2023-04-18T09:55:56.245Z,6.90
2023-04-18T09:57:02.849Z,8.40
2023-04-18T09:58:05.916Z,1.70
2023-04-18T09:59:09.355Z,2.53
2023-04-18T10:00:24.592Z,2.62
2023-04-18T10:01:29.063Z,3.08
2023-04-18T10:02:39.334Z,3.53
2023-04-18T10:03:47.347Z,5.00
2023-04-18T10:04:55.934Z,2.03
2023-04-18T10:05:58.056Z,2.85
2023-04-18T10:07:01.856Z,5.70
2023-04-18T10:08:04.121Z,2.08
2023-04-18T10:09:08.447Z,7.40
2023-04-18T10:10:10.516Z,3.42
2023-04-18T10:11:12.529Z,4.32
2023-04-18T10:12:15.809Z,2.85
2023-04-18T10:13:18.794Z,3.60
2023-04-18T10:14:22.793Z,4.47
2023-04-18T10:15:29.333Z,3.97
2023-04-18T10:16:34.077Z,3.70
2023-04-18T10:19:30.021Z,4.32
2023-04-18T10:20:34.623Z,3.28
2023-04-18T10:21:36.658Z,3.55
2023-04-18T10:22:38.773Z,4.85
2023-04-18T10:23:40.971Z,4.85
2023-04-18T10:24:52.866Z,2.60
2023-04-18T10:26:57.942Z,4.28
2023-04-18T10:28:01.886Z,4.87
2023-04-18T10:29:04.007Z,3.70
2023-04-18T10:30:08.913Z,4.80
2023-04-18T10:31:11.798Z,3.75
2023-04-18T10:32:13.735Z,3.72
2023-04-18T10:34:29.552Z,4.07
2023-04-18T10:35:35.824Z,5.93
2023-04-18T10:36:56.293Z,3.08
2023-04-18T10:37:59.569Z,6.57
2023-04-18T10:39:23.375Z,3.85
2023-04-18T10:40:35.265Z,7.12
2023-04-18T10:42:51.514Z,4.30
2023-04-18T10:44:09.064Z,4.75
2023-04-18T10:45:22.261Z,3.72
2023-04-18T10:46:31.593Z,8.75
2023-04-18T10:47:34.623Z,3.75
2023-04-18T10:48:41.008Z,7.60
2023-04-18T10:49:53.874Z,3.50
2023-04-18T10:51:19.377Z,8.25
2023-04-18T10:52:21.299Z,2.22
2023-04-18T10:53:23.293Z,4.40
2023-04-18T10:54:39.005Z,6.40
2023-04-18T10:55:45.671Z,3.72
2023-04-18T10:57:02.240Z,4.05
2023-04-18T10:58:05.189Z,2.92
2023-04-18T10:59:10.765Z,3.45
2023-04-18T11:00:15.861Z,3.97
2023-04-18T11:01:27.935Z,3.17
2023-04-18T11:02:32.443Z,1.62
2023-04-18T11:03:35.102Z,3.17
2023-04-18T11:04:37.816Z,4.57
2023-04-18T11:05:39.848Z,5.15
2023-04-18T11:06:55.900Z,3.00
2023-04-18T11:07:58.104Z,3.33
2023-04-18T11:09:13.770Z,6.03
2023-04-18T11:10:24.581Z,4.87
2023-04-18T11:11:26.545Z,7.28
2023-04-18T11:12:36.586Z,7.05
2023-04-18T11:13:57.468Z,4.20
2023-04-18T11:15:04.183Z,2.78
2023-04-18T11:16:06.423Z,4.30
2023-04-18T11:17:24.626Z,4.80
2023-04-18T11:18:26.544Z,5.47
2023-04-18T11:19:28.950Z,1.65
2023-04-18T11:20:38.973Z,4.55
2023-04-18T11:21:41.030Z,4.78
2023-04-18T11:22:52.556Z,4.22
2023-04-18T11:23:56.129Z,2.83
2023-04-18T11:25:00.160Z,8.90
2023-04-18T11:26:03.312Z,2.97
2023-04-18T11:27:05.830Z,3.05
2023-04-18T11:28:07.664Z,3.90
2023-04-18T11:29:09.567Z,3.20
2023-04-18T11:30:13.428Z,2.47
2023-04-18T11:31:16.193Z,6.00
2023-04-18T11:32:18.264Z,3.42
2023-04-18T11:33:20.299Z,3.45
2023-04-18T11:34:22.375Z,4.65
2023-04-18T11:35:24.577Z,7.75
2023-04-18T11:36:26.641Z,5.68
2023-04-18T11:37:28.614Z,5.03
2023-04-18T11:38:30.941Z,4.25
2023-04-18T11:39:42.637Z,4.47
2023-04-18T11:40:49.103Z,2.83
2023-04-18T11:41:51.243Z,4.05
2023-04-18T11:42:54.474Z,4.35
2023-04-18T11:43:56.384Z,1.95
2023-04-18T11:44:58.230Z,5.05
2023-04-18T11:46:00.664Z,4.87
2023-04-18T11:47:02.560Z,3.80
2023-04-18T11:48:04.545Z,3.75
2023-04-18T11:49:06.907Z,7.35
2023-04-18T11:50:13.276Z,6.00
2023-04-18T11:51:46.333Z,7.15
2023-04-18T11:52:51.162Z,7.18
2023-04-18T11:53:52.994Z,3.65
2023-04-18T11:54:56.219Z,2.72
2023-04-18T11:55:58.142Z,4.00
2023-04-18T11:57:00.910Z,3.92
2023-04-18T11:58:03.356Z,5.60
2023-04-18T11:59:09.377Z,3.30
2023-04-18T12:00:12.609Z,5.03
2023-04-18T12:01:22.911Z,4.05
2023-04-18T12:02:38.679Z,2.25
2023-04-18T12:03:40.760Z,6.50
2023-04-18T12:05:01.671Z,4.05
2023-04-18T12:06:04.208Z,3.58
2023-04-18T12:07:06.676Z,3.62
2023-04-18T12:08:13.528Z,5.07
2023-04-18T12:09:19.596Z,3.75
2023-04-18T12:10:29.818Z,5.20
2023-04-18T12:11:31.760Z,6.43
2023-04-18T12:12:34.628Z,3.87
2023-04-18T12:13:36.484Z,4.68
2023-04-18T12:14:38.377Z,5.53
2023-04-18T12:15:43.494Z,4.78
2023-04-18T12:16:45.995Z,4.72
2023-04-18T12:17:57.253Z,6.15
2023-04-18T12:19:03.281Z,4.60
2023-04-18T12:20:08.036Z,4.10
2023-04-18T12:21:10.398Z,4.03
2023-04-18T12:22:12.270Z,3.75
2023-04-18T12:23:38.832Z,6.25
2023-04-18T12:24:41.730Z,4.62
2023-04-18T12:25:43.937Z,7.87
2023-04-18T12:26:46.320Z,6.97
2023-04-18T12:27:59.472Z,3.85
2023-04-18T12:29:01.778Z,4.62
2023-04-18T12:30:04.020Z,5.10
2023-04-18T12:31:07.058Z,3.17
2023-04-18T12:32:08.952Z,4.95
2023-04-18T12:33:11.402Z,2.53
2023-04-18T12:34:13.828Z,2.60
2023-04-18T12:35:17.941Z,4.00
2023-04-18T12:36:22.104Z,4.87
2023-04-18T12:37:25.610Z,4.18
2023-04-18T12:38:27.666Z,4.57
2023-04-18T12:39:29.748Z,2.62
2023-04-18T12:40:31.653Z,4.85
2023-04-18T12:41:33.550Z,2.25
2023-04-18T12:42:35.633Z,7.12
2023-04-18T12:43:37.493Z,4.43
2023-04-18T12:44:39.703Z,3.33
2023-04-18T12:45:41.646Z,4.25
2023-04-18T12:46:43.551Z,6.62
2023-04-18T12:47:47.898Z,5.93
2023-04-18T12:48:49.813Z,5.15
2023-04-18T12:49:51.951Z,5.95
2023-04-18T12:50:53.800Z,3.87
2023-04-18T12:51:55.700Z,3.62
2023-04-18T12:52:59.815Z,2.37
2023-04-18T12:54:01.866Z,4.15
2023-04-18T12:55:04.919Z,3.37
2023-04-18T12:56:06.962Z,3.90
2023-04-18T12:57:08.806Z,4.03
2023-04-18T12:58:10.741Z,3.20
2023-04-18T12:59:12.768Z,8.13
2023-04-18T13:00:15.267Z,6.03
2023-04-18T13:01:17.442Z,5.00
2023-04-18T13:02:19.434Z,7.12
2023-04-18T13:03:21.493Z,3.10
2023-04-18T13:04:23.626Z,2.72
2023-04-18T13:05:30.881Z,3.17
2023-04-18T13:06:34.612Z,4.82
2023-04-18T13:07:40.611Z,2.85
2023-04-18T13:08:42.718Z,3.35
2023-04-18T13:09:46.478Z,6.10
2023-04-18T13:10:48.700Z,4.57
2023-04-18T13:11:50.613Z,3.42
2023-04-18T13:12:52.903Z,7.03
2023-04-18T13:13:55.390Z,2.70
2023-04-18T13:14:57.682Z,7.43
2023-04-18T13:15:59.906Z,7.12
2023-04-18T13:17:01.827Z,4.75
2023-04-18T13:18:06.144Z,1.80
2023-04-18T13:19:08.194Z,6.85
2023-04-18T13:20:12.372Z,6.28
2023-04-18T13:21:14.549Z,9.85
2023-04-18T13:22:18.086Z,7.40
2023-04-18T13:23:20.031Z,6.78
2023-04-18T13:24:22.100Z,5.07
2023-04-18T13:25:23.972Z,3.35
2023-04-18T13:26:26.401Z,7.28
2023-04-18T13:27:28.723Z,4.15
2023-04-18T13:28:30.786Z,6.60
2023-04-18T13:29:32.691Z,6.47
2023-04-18T13:30:35.898Z,2.42
2023-04-18T13:31:38.160Z,4.87
2023-04-18T13:32:41.162Z,5.53
2023-04-18T13:33:44.527Z,9.95
2023-04-18T13:34:47.877Z,4.72
2023-04-18T13:35:49.720Z,4.53
2023-04-18T13:36:51.851Z,9.25
2023-04-18T13:37:54.125Z,3.92
2023-04-18T13:38:55.977Z,7.97
2023-04-18T13:39:57.929Z,4.78
2023-04-18T13:41:11.559Z,4.32
2023-04-18T13:42:16.286Z,6.00
2023-04-18T13:43:18.295Z,7.90
2023-04-18T13:44:20.346Z,2.87
2023-04-18T13:45:22.317Z,4.80
2023-04-18T13:46:26.541Z,5.40
2023-04-18T13:47:29.633Z,4.75
2023-04-18T13:48:31.532Z,3.05
2023-04-18T13:49:34.359Z,4.47
2023-04-18T13:50:36.205Z,3.45
2023-04-18T13:51:38.051Z,5.93
2023-04-18T13:52:40.276Z,4.65
2023-04-18T13:53:42.107Z,6.37
2023-04-18T13:54:44.088Z,4.32
2023-04-18T13:55:45.988Z,2.62
2023-04-18T13:56:47.842Z,4.53
2023-04-18T13:57:50.179Z,3.72
2023-04-18T13:58:52.080Z,2.58
2023-04-18T13:59:53.969Z,5.45
2023-04-18T14:00:56.151Z,4.85
2023-04-18T14:01:58.947Z,7.78
2023-04-18T14:03:01.260Z,4.80
2023-04-18T14:04:03.791Z,7.25
2023-04-18T14:05:06.799Z,4.68
2023-04-18T14:06:08.796Z,5.90
2023-04-18T14:07:11.020Z,3.65
2023-04-18T14:08:14.218Z,5.80
2023-04-18T14:09:17.047Z,2.80